Date,TemperatureHighF,TemperatureAvgF,TemperatureLowF,DewpointHighF,DewpointAvgF,DewpointLowF,HumidityHigh,HumidityAvg,HumidityLow,PressureMaxIn,PressureMinIn,WindSpeedMaxMPH,WindSpeedAvgMPH,GustSpeedMaxMPH,PrecipitationSumIn
2014-1-1,7.9,5.7,2.5,3.0,0.9,-1.3,86,80,73,30.45,30.36,14,4,15,0.00
2014-1-2,6.6,2.6,-8.1,1.2,-2.7,-11.4,87,78,69,30.57,30.40,12,3,13,0.00
2014-1-3,23.2,7.3,-11.7,18.9,2.9,-15.0,88,82,75,30.54,29.73,18,4,18,0.00
2014-1-4,33.1,21.1,9.1,29.1,15.7,2.5,85,80,74,30.22,29.70,17,5,20,0.00
2014-1-5,9.0,-0.9,-13.4,2.7,-8.8,-22.0,77,68,59,30.45,30.22,26,6,26,0.00
2014-1-6,-7.2,-12.4,-18.2,-13.4,-19.3,-25.2,78,70,65,30.49,30.40,20,5,20,0.00
2014-1-7,8.1,-1.2,-9.2,-1.3,-7.1,-15.0,88,76,63,30.41,30.25,8,1,8,0.00
2014-1-8,9.7,1.4,-4.2,0.5,-3.9,-7.6,87,78,62,30.60,30.38,8,0,9,0.00
2014-1-9,20.7,8.0,-4.7,19.0,4.3,-8.3,93,85,74,30.58,30.11,12,2,12,0.00
2014-1-10,32.5,28.9,20.7,32.0,28.2,19.0,98,97,93,30.11,29.54,12,2,12,0.00
2014-1-11,31.6,28.8,25.0,30.9,26.8,21.9,97,92,86,29.86,29.54,16,3,16,0.00
2014-1-12,40.8,33.8,21.0,33.8,29.4,19.6,97,84,73,29.83,29.51,14,2,14,0.01
2014-1-13,38.3,34.2,29.1,33.4,28.7,23.9,88,80,70,29.79,29.59,17,3,17,0.00
2014-1-14,36.0,26.1,12.6,34.0,21.5,8.4,94,83,74,30.14,29.56,28,7,29,0.07
2014-1-15,25.3,14.1,5.5,18.1,8.7,1.6,86,79,70,30.24,29.69,15,3,15,0.00
2014-1-16,34.9,23.1,4.6,31.1,16.0,-0.9,86,74,57,29.94,29.56,23,6,25,0.00
2014-1-17,16.2,9.2,4.5,8.2,3.8,-0.8,88,78,70,30.12,29.93,17,3,17,0.00
2014-1-18,19.8,13.9,7.0,14.5,10.1,3.9,89,85,80,30.05,29.63,15,4,16,0.00
2014-1-19,43.3,30.9,13.8,34.3,25.4,11.1,89,80,67,29.94,29.60,18,6,21,0.00
2014-1-20,32.4,25.6,6.1,28.6,22.3,0.0,95,87,75,30.36,29.78,21,3,22,0.00
2014-1-21,6.8,0.8,-7.1,3.0,-5.9,-13.5,85,73,64,30.52,30.18,16,2,16,0.00
2014-1-22,15.4,6.8,-4.7,10.2,1.7,-10.8,86,79,68,30.53,30.06,21,5,21,0.00
2014-1-23,2.5,-4.4,-10.7,-5.6,-10.3,-16.1,84,75,63,30.83,30.53,16,3,16,0.00
2014-1-24,36.0,20.3,-2.0,34.0,13.2,-6.3,96,74,65,30.58,29.59,24,6,24,0.01
2014-1-25,35.4,17.0,10.0,31.3,6.5,-4.0,88,63,50,29.98,29.62,14,5,21,0.00
2014-1-26,33.1,18.8,-1.5,27.1,13.7,-6.9,90,80,67,30.17,29.45,30,6,30,0.00
2014-1-27,-1.1,-5.3,-9.6,-5.8,-12.3,-16.2,83,71,61,30.60,30.17,21,5,22,0.00
2014-1-28,10.2,-1.3,-10.8,-0.2,-7.5,-14.8,84,75,59,30.58,30.34,16,2,16,0.00
2014-1-29,32.9,15.8,-1.7,17.1,6.0,-7.6,79,66,49,30.34,29.79,12,2,12,0.00
2014-1-30,34.5,23.4,3.9,28.8,16.4,-1.7,94,75,60,30.10,29.51,19,4,19,0.00
2014-1-31,10.4,5.0,0.3,0.9,-2.1,-5.4,78,72,60,30.29,30.10,18,2,18,0.00
2014-2-1,25.5,13.6,6.3,18.9,9.5,0.9,89,83,75,30.30,30.05,13,1,13,0.00
2014-2-2,14.4,4.0,-2.9,4.6,-1.4,-6.2,89,78,63,30.46,30.30,11,2,11,0.00
2014-2-3,23.0,8.7,-7.2,13.5,3.4,-10.3,88,79,66,30.44,30.37,11,1,11,0.00
2014-2-4,17.4,15.2,10.9,12.4,10.6,7.9,88,82,73,30.47,30.33,16,2,16,0.00
2014-2-5,10.8,4.6,-3.3,7.9,-0.4,-7.6,88,80,69,30.64,30.35,14,5,17,0.00
2014-2-6,6.6,-1.1,-9.6,-1.1,-6.5,-13.4,84,78,66,30.63,30.48,15,2,15,0.00
2014-2-7,15.3,3.4,-6.5,6.4,-1.8,-10.5,86,79,64,30.48,30.34,12,2,12,0.00
2014-2-8,20.1,12.5,6.3,13.5,8.7,1.2,89,85,75,30.34,30.16,6,1,6,0.00
2014-2-9,9.9,3.4,-2.6,7.3,-1.6,-6.7,91,79,64,30.50,30.24,14,2,17,0.00
2014-2-10,4.8,-3.0,-10.1,-4.7,-8.9,-13.9,86,76,62,30.62,30.48,13,2,13,0.00
2014-2-11,9.9,-1.6,-15.2,3.7,-6.6,-18.8,87,79,69,30.63,30.33,11,2,11,0.00
2014-2-12,24.1,14.8,9.3,16.7,10.6,3.9,93,83,72,30.34,29.98,10,1,10,0.00
2014-2-13,38.1,22.3,10.0,31.3,17.5,5.2,93,82,64,29.98,29.61,20,4,20,0.08
2014-2-14,17.6,10.9,6.1,9.9,5.8,3.0,89,80,70,30.16,29.78,17,4,19,0.00
2014-2-15,20.1,8.5,-1.1,17.4,5.6,-3.8,90,87,80,30.16,29.93,15,2,15,0.00
2014-2-16,22.3,20.2,17.2,17.8,15.0,12.0,89,80,70,30.31,30.07,13,4,14,0.00
2014-2-17,37.9,26.6,20.3,32.4,22.5,14.7,94,85,73,30.16,29.77,23,5,23,0.05
2014-2-18,45.1,34.7,19.9,34.2,28.0,16.9,91,77,61,29.92,29.61,15,2,15,0.16
2014-2-19,40.5,34.0,24.8,34.0,30.0,23.0,94,85,77,29.96,29.74,14,3,14,0.00
2014-2-20,36.7,33.6,23.5,34.9,32.4,21.2,98,96,83,29.74,29.17,26,6,28,0.38
2014-2-21,27.5,21.2,16.5,21.2,15.4,11.8,91,78,59,29.92,29.47,30,6,30,0.00
2014-2-22,24.4,18.5,13.6,14.7,11.0,8.6,86,73,57,30.23,29.92,9,2,10,0.00
2014-2-23,19.9,14.1,7.7,10.0,7.2,3.0,82,74,61,30.40,30.23,14,2,14,0.00
2014-2-24,17.4,11.5,5.2,8.8,4.9,0.9,88,75,56,30.48,30.36,12,2,15,0.00
2014-2-25,10.6,5.2,-2.0,7.3,-1.2,-8.1,87,75,59,30.48,30.38,17,4,20,0.00
2014-2-26,20.5,5.7,-8.3,12.9,-1.1,-12.6,83,73,59,30.47,29.86,23,6,23,0.00
2014-2-27,9.5,-0.8,-5.6,0.9,-11.1,-15.5,72,61,45,30.31,29.98,22,3,22,0.00
2014-2-28,27.1,12.5,-5.6,19.8,6.4,-13.2,93,76,68,30.22,29.98,18,4,18,0.00
2014-3-1,16.5,6.5,-0.9,14.5,2.2,-7.4,92,82,72,30.57,30.17,15,4,17,0.00
2014-3-2,-0.6,-4.2,-8.7,-7.1,-12.7,-15.9,77,66,52,30.68,30.56,14,4,14,0.00
2014-3-3,11.5,1.7,-11.0,6.6,-5.3,-14.4,88,73,54,30.66,30.38,9,2,9,0.00
2014-3-4,23.2,15.5,5.7,13.5,8.3,0.9,87,73,57,30.38,30.20,10,2,10,0.00
2014-3-5,22.3,19.7,17.6,16.5,14.6,12.0,87,80,71,30.47,30.29,17,4,17,0.00
2014-3-6,26.2,21.3,17.6,20.5,16.8,12.2,87,82,75,30.45,30.00,11,4,14,0.00
2014-3-7,40.3,31.1,23.4,34.5,26.9,19.8,92,85,78,30.13,29.89,14,3,14,0.10
2014-3-8,33.6,28.1,18.1,27.1,23.2,15.6,93,82,64,30.35,30.13,13,3,13,0.00
2014-3-9,45.5,36.3,15.3,35.8,29.6,12.7,91,77,67,30.33,29.79,14,3,16,0.00
2014-3-10,52.2,44.1,36.7,40.5,36.3,34.0,93,75,59,29.79,29.70,12,2,13,0.00
2014-3-11,42.6,38.8,36.3,36.5,33.3,28.0,95,81,66,29.93,29.64,19,3,20,0.00
2014-3-12,36.1,27.7,19.9,27.7,19.8,16.9,88,72,58,30.17,29.93,13,4,20,0.00
2014-3-13,54.5,38.0,19.2,43.7,31.4,16.3,90,78,67,30.16,29.70,12,2,12,0.00
2014-3-14,47.7,42.2,37.0,37.6,34.0,30.7,84,73,64,29.98,29.60,19,4,19,0.00
2014-3-15,37.0,31.7,28.2,31.6,26.1,22.3,96,80,60,30.31,29.97,16,2,16,0.00
2014-3-16,28.9,23.2,18.3,22.6,14.5,9.0,83,70,52,30.45,30.18,15,3,15,0.00
2014-3-17,42.1,29.1,19.8,27.7,21.0,13.6,83,72,53,30.18,29.65,17,4,18,0.01
2014-3-18,47.7,38.9,32.7,38.7,31.8,24.6,96,76,67,29.72,29.55,17,4,17,0.09
2014-3-19,37.6,33.9,27.5,36.5,30.0,25.3,96,86,69,30.06,29.64,21,4,21,0.03
2014-3-20,48.2,36.2,25.0,32.2,28.1,23.7,97,75,43,30.11,29.98,7,1,7,0.00
2014-3-21,54.1,38.8,30.2,40.5,31.7,26.2,87,76,53,30.11,29.78,25,4,25,0.00
2014-3-22,32.0,25.5,20.7,27.0,16.2,9.9,83,68,49,30.52,30.11,18,5,18,0.00
2014-3-23,28.9,21.4,14.5,14.7,10.0,7.2,75,62,44,30.59,30.44,13,2,13,0.00
2014-3-24,33.8,26.8,20.5,28.6,22.4,14.4,92,83,70,30.45,30.18,12,2,13,0.02
2014-3-25,26.4,21.1,16.2,19.0,10.7,2.3,85,65,48,30.37,30.18,20,4,22,0.00
2014-3-26,45.0,31.0,15.6,27.5,18.4,10.8,83,62,40,30.29,29.79,23,6,23,0.00
2014-3-27,48.4,40.9,36.0,47.5,39.1,27.5,98,94,58,29.80,29.31,17,5,19,0.48
2014-3-28,38.7,34.6,31.6,34.7,30.4,28.0,95,85,72,30.23,29.59,17,3,19,0.00
2014-3-29,50.4,39.3,30.2,33.8,30.0,26.4,86,70,50,30.32,30.21,11,1,11,0.00
2014-3-30,66.9,48.4,33.4,41.0,36.0,30.2,88,66,36,30.22,29.86,19,5,19,0.00
2014-3-31,67.8,50.8,29.8,51.3,40.3,21.6,86,68,49,29.87,29.42,26,8,27,0.09
2014-4-1,43.9,32.9,23.4,32.2,24.0,16.0,78,70,59,30.14,29.72,25,6,26,0.00
2014-4-2,50.2,39.4,28.6,35.2,29.7,26.2,92,70,43,30.19,29.97,17,4,17,0.03
2014-4-3,47.1,40.6,35.1,41.2,36.0,29.5,96,84,61,29.97,29.59,20,5,20,0.19
2014-4-4,40.5,35.0,30.0,34.7,29.9,25.9,97,82,63,30.14,29.55,21,5,22,0.04
2014-4-5,54.0,39.7,25.5,33.6,29.4,24.3,96,70,37,30.24,30.09,12,2,13,0.00
2014-4-6,62.2,48.4,37.9,47.8,39.2,30.2,88,71,52,30.09,29.90,12,2,12,0.01
2014-4-7,60.3,49.1,39.6,46.8,41.1,36.7,92,75,48,29.90,29.70,23,1,23,0.01
2014-4-8,55.2,45.8,37.9,39.9,35.1,30.6,84,67,50,30.03,29.79,17,3,17,0.00
2014-4-9,70.2,50.9,30.7,38.7,33.6,28.4,92,58,25,30.05,29.67,21,4,21,0.00
2014-4-10,62.6,55.4,45.7,42.4,34.2,21.0,71,47,23,29.99,29.59,20,4,20,0.00
2014-4-11,72.3,56.2,37.9,37.6,33.0,27.7,79,46,21,30.03,29.89,21,3,21,0.00
2014-4-12,83.5,64.0,52.0,58.6,48.4,36.0,97,59,39,29.92,29.50,22,4,24,0.89
2014-4-13,56.1,47.5,36.7,55.6,46.8,34.9,99,97,93,29.71,29.54,25,5,25,2.37
2014-4-14,36.9,32.0,29.1,34.7,25.3,16.2,98,78,47,30.15,29.64,22,6,27,0.04
2014-4-15,40.3,31.4,24.1,21.2,16.5,10.0,73,55,38,30.24,30.11,12,2,13,0.00
2014-4-16,58.6,46.1,33.4,36.1,30.1,20.3,68,54,40,30.12,29.84,23,8,23,0.00
2014-4-17,48.6,39.5,32.7,41.4,32.8,29.5,89,78,58,30.35,29.89,19,4,20,0.00
2014-4-18,60.4,44.7,27.5,34.3,30.7,26.1,95,63,31,30.42,30.24,11,2,11,0.00
2014-4-19,74.7,56.8,38.3,47.7,39.2,30.0,80,54,34,30.28,30.05,22,6,22,0.00
2014-4-20,79.5,64.6,52.2,55.9,49.8,42.4,90,61,42,30.09,29.89,10,2,11,0.19
2014-4-21,69.3,60.8,50.7,60.3,52.4,39.0,96,76,36,29.99,29.88,17,3,17,0.46
2014-4-22,60.1,50.6,40.1,39.2,34.2,30.9,75,54,39,30.12,29.99,16,3,18,0.00
2014-4-23,49.6,46.1,42.6,41.0,35.1,29.3,84,66,48,30.15,29.88,17,5,18,0.09
2014-4-24,51.4,47.0,43.3,49.8,43.7,38.3,96,88,78,29.93,29.67,18,4,19,0.81
2014-4-25,71.4,55.7,39.0,47.1,39.7,33.4,97,62,28,29.85,29.77,16,2,16,0.00
2014-4-26,66.9,54.5,44.6,41.5,39.8,37.0,83,60,38,29.93,29.78,24,5,25,0.00
2014-4-27,62.4,49.4,39.9,52.7,43.6,30.6,93,81,60,29.88,29.51,28,9,28,0.69
2014-4-28,51.3,48.5,46.2,48.6,46.2,44.4,96,92,83,29.59,29.41,25,8,25,0.17
2014-4-29,46.2,43.0,35.1,45.1,41.6,33.8,97,95,93,29.70,29.44,15,3,16,0.09
2014-4-30,41.2,37.9,34.5,40.5,36.7,33.4,97,95,91,29.79,29.69,9,2,9,0.34
2014-5-1,48.4,43.8,39.6,42.4,40.6,38.5,96,89,77,29.90,29.72,15,4,16,0.08
2014-5-2,65.3,52.3,43.7,47.7,42.1,39.6,90,70,44,29.90,29.64,19,4,20,0.00
2014-5-3,67.3,55.5,43.3,43.3,39.1,35.2,80,56,34,29.96,29.74,15,3,21,0.00
2014-5-4,57.4,50.8,42.4,39.6,36.4,31.5,86,59,39,30.09,29.89,14,3,15,0.08
2014-5-5,66.9,55.8,46.8,41.0,36.4,32.0,60,49,35,29.96,29.86,17,5,18,0.00
2014-5-6,70.5,57.6,43.5,42.6,38.5,33.4,69,50,34,29.93,29.70,21,7,22,0.00
2014-5-7,86.9,69.9,54.7,66.4,55.5,41.9,71,61,45,29.72,29.57,18,5,20,0.00
2014-5-8,78.6,72.0,65.5,66.7,63.5,60.3,85,75,61,29.70,29.59,21,4,21,0.04
2014-5-9,65.5,55.2,46.6,61.2,44.9,36.3,89,70,35,29.85,29.58,19,4,19,0.01
2014-5-10,76.8,60.4,40.5,52.0,44.3,37.2,92,59,29,29.92,29.75,13,2,14,0.00
2014-5-11,72.5,63.4,54.9,65.7,58.2,48.6,96,83,58,29.91,29.72,12,2,13,0.25
2014-5-12,72.0,63.1,49.6,66.7,60.9,46.8,98,93,79,29.87,29.64,20,3,21,1.29
2014-5-13,55.6,49.7,46.0,46.9,42.4,37.9,93,77,56,30.24,29.86,15,2,21,0.00
2014-5-14,58.5,50.0,36.7,40.8,37.1,33.1,94,64,42,30.29,30.09,11,1,11,0.00
2014-5-15,49.3,44.9,41.7,43.3,40.1,36.7,95,83,69,30.10,30.01,11,1,11,0.48
2014-5-16,53.1,44.8,36.9,38.3,35.4,30.7,93,71,48,30.13,30.05,10,1,11,0.00
2014-5-17,65.1,51.9,37.2,37.9,34.0,28.0,91,56,28,30.16,30.08,13,2,13,0.00
2014-5-18,71.1,59.3,44.4,43.2,38.0,34.3,72,48,28,30.18,30.04,16,3,16,0.00
2014-5-19,74.8,62.6,53.6,59.4,51.3,42.3,76,67,54,30.09,29.75,23,7,25,0.01
2014-5-20,86.5,73.4,62.2,64.9,60.2,54.0,86,66,36,29.82,29.74,13,1,13,0.00
2014-5-21,80.1,69.3,58.8,62.8,54.1,46.2,96,63,32,30.07,29.79,14,1,14,0.00
2014-5-22,77.2,62.8,50.2,49.5,46.1,39.7,89,58,28,30.21,30.06,12,1,13,0.00
2014-5-23,78.3,64.4,47.3,48.7,44.4,38.7,90,53,26,30.22,30.11,8,1,8,0.00
2014-5-24,78.3,65.8,52.9,52.3,49.1,45.5,82,57,35,30.19,30.04,11,2,12,0.00
2014-5-25,77.4,67.3,55.2,65.5,57.0,48.9,82,70,57,30.08,29.92,15,3,17,0.00
2014-5-26,82.9,73.3,64.9,66.7,64.2,61.5,90,74,52,29.97,29.85,13,2,13,0.00
2014-5-27,84.7,73.0,62.2,67.3,63.2,60.1,93,73,48,29.91,29.83,14,1,16,0.00
2014-5-28,78.3,69.6,63.3,66.0,62.0,52.3,97,78,55,30.02,29.87,13,2,14,0.00
2014-5-29,84.0,72.7,59.5,65.3,59.7,52.3,79,64,50,30.08,29.97,12,2,12,0.00
2014-5-30,87.3,76.3,63.9,66.6,61.6,56.8,79,62,43,30.11,29.99,12,2,12,0.00
2014-5-31,86.4,74.9,67.1,68.0,63.2,56.7,91,68,46,30.08,29.91,21,2,23,0.04
2014-6-1,88.2,77.4,67.3,70.5,67.3,64.0,93,73,47,29.95,29.70,21,3,21,0.07
2014-6-2,82.9,72.8,64.9,65.8,61.9,55.9,96,72,42,29.87,29.70,22,3,22,0.04
2014-6-3,82.2,69.3,57.0,61.7,55.3,50.7,93,64,37,29.99,29.81,11,1,11,0.19
2014-6-4,73.6,65.5,59.0,64.6,61.5,57.0,96,87,60,29.91,29.63,11,1,11,0.05
2014-6-5,77.9,66.7,54.9,58.5,55.9,52.2,98,71,44,29.97,29.87,15,2,16,0.00
2014-6-6,86.7,72.6,58.3,64.8,59.1,54.7,90,66,36,29.95,29.85,8,1,9,0.00
2014-6-7,74.5,66.9,61.2,65.8,61.9,57.9,94,84,70,29.97,29.85,10,0,10,0.06
2014-6-8,70.3,62.6,57.2,58.3,56.0,53.6,92,80,63,30.07,29.96,11,1,11,0.00
2014-6-9,76.5,66.2,55.0,56.8,50.3,44.4,97,60,39,30.01,29.88,10,1,11,0.00
2014-6-10,71.6,66.8,61.5,57.2,54.9,46.8,81,66,51,29.90,29.80,9,1,9,0.00
2014-6-11,85.5,71.2,57.0,58.8,55.8,52.9,93,62,35,29.82,29.70,12,1,13,0.00
2014-6-12,73.8,67.7,58.5,60.3,51.2,42.8,76,57,35,29.98,29.70,19,2,19,0.00
2014-6-13,78.1,65.0,50.0,47.1,43.8,38.3,83,50,26,30.06,29.93,13,1,13,0.00
2014-6-14,79.9,69.3,56.1,54.7,50.3,45.1,74,52,33,30.00,29.74,23,5,23,0.00
2014-6-15,83.3,74.3,67.3,63.9,57.2,51.1,74,56,38,29.89,29.54,23,5,26,0.00
2014-6-16,84.9,73.4,63.1,70.5,63.3,55.0,97,72,46,29.97,29.63,25,4,26,1.61
2014-6-17,84.2,73.5,62.4,75.2,68.0,61.9,99,84,66,29.85,29.63,12,2,13,0.56
2014-6-18,81.0,75.3,66.0,74.1,70.1,65.1,97,84,68,29.86,29.75,13,3,13,0.49
2014-6-19,74.7,69.7,65.8,71.4,67.8,64.6,98,94,85,29.96,29.85,19,3,19,2.20
2014-6-20,89.1,74.8,63.7,72.1,64.3,53.8,99,75,31,29.98,29.86,10,1,10,0.00
2014-6-21,88.3,77.7,68.7,69.8,66.4,63.3,89,69,51,29.90,29.79,12,1,12,0.00
2014-6-22,78.1,68.5,64.0,70.3,66.0,63.1,98,92,72,29.90,29.78,19,1,23,0.60
2014-6-23,81.0,71.8,63.7,68.0,65.4,63.1,99,82,60,29.87,29.80,10,0,10,0.00
2014-6-24,83.3,73.7,62.1,66.0,62.8,59.2,95,71,47,29.92,29.85,9,1,10,0.00
2014-6-25,84.7,74.7,62.4,65.8,63.6,61.2,96,70,48,29.98,29.91,10,1,11,0.00
2014-6-26,82.6,74.0,65.8,69.8,67.1,64.4,96,80,59,30.01,29.86,12,3,14,0.12
2014-6-27,75.9,70.9,66.7,72.1,68.0,64.8,96,91,80,29.88,29.79,12,2,12,0.64
2014-6-28,83.7,73.9,66.2,74.1,70.0,64.9,97,88,72,29.85,29.70,19,4,19,1.84
2014-6-29,82.8,72.1,64.2,74.3,67.5,61.9,97,86,67,29.92,29.70,20,3,20,1.06
2014-6-30,77.4,68.7,62.8,72.3,67.0,62.4,99,95,78,29.81,29.57,30,2,34,1.53
2014-7-1,77.4,67.3,60.3,64.0,60.4,53.4,100,80,58,29.86,29.65,19,4,19,0.01
2014-7-2,65.8,59.6,54.1,56.7,54.2,52.0,97,82,69,30.08,29.85,12,1,12,0.00
2014-7-3,77.2,64.5,51.1,56.7,51.9,47.3,98,68,38,30.21,30.08,10,0,10,0.00
2014-7-4,78.4,66.7,52.0,59.0,53.9,48.0,98,67,40,30.29,30.17,11,2,11,0.00
2014-7-5,68.5,64.7,61.3,65.5,61.6,56.8,97,90,78,30.20,29.96,10,3,10,0.01
2014-7-6,87.3,74.6,65.1,77.9,71.2,64.2,98,90,72,29.96,29.66,14,2,16,0.32
2014-7-7,85.1,76.1,64.9,72.3,66.9,61.2,95,75,48,29.79,29.61,9,1,10,0.00
2014-7-8,80.2,72.2,64.8,69.1,59.8,56.1,87,66,46,29.88,29.63,18,2,24,0.00
2014-7-9,71.4,62.6,57.7,59.9,53.7,-99.9,86,76,63,30.00,29.03,5,-18,6,0.00
2014-7-10,83.1,72.1,61.2,63.9,60.5,58.3,91,69,45,29.15,29.07,11,2,11,0.00
2014-7-11,79.0,70.4,63.9,69.8,64.2,58.6,90,81,71,29.15,29.04,13,3,13,0.00
2014-7-12,81.0,72.5,65.7,73.4,69.4,64.9,98,90,72,29.08,28.95,12,0,12,0.33
2014-7-13,83.8,73.3,63.0,70.5,64.1,58.6,99,76,44,29.03,28.94,15,1,15,0.03
2014-7-14,71.8,66.2,58.5,63.7,53.3,46.6,89,65,43,29.03,28.94,20,2,20,0.00
2014-7-15,70.5,61.6,54.1,53.6,51.9,50.7,90,72,51,29.10,29.02,14,1,14,0.00
2014-7-16,78.4,64.7,51.3,56.3,52.7,49.6,95,68,38,29.10,29.04,6,0,7,0.00
2014-7-17,79.0,67.7,54.3,59.0,55.8,53.1,96,69,43,29.12,29.07,10,1,10,0.00
2014-7-18,79.0,69.4,58.3,61.7,58.8,55.2,91,71,49,29.15,29.05,11,2,11,0.00
2014-7-19,81.1,71.6,63.0,63.9,61.3,59.0,88,71,50,29.09,28.99,11,2,11,0.00
2014-7-20,83.3,73.4,63.7,67.6,64.7,61.0,91,75,56,29.04,28.95,11,3,13,0.00
2014-7-21,87.6,77.5,67.1,75.6,70.2,64.8,92,79,65,29.03,28.94,18,4,20,0.00
2014-7-22,91.8,81.6,73.2,78.6,72.6,65.8,89,75,51,29.13,28.93,15,2,15,0.00
2014-7-23,81.0,72.4,64.6,66.0,59.9,54.7,90,67,43,29.25,29.13,12,1,12,0.00
2014-7-24,80.6,69.2,58.3,63.7,60.3,56.8,96,75,49,29.20,28.96,8,2,9,0.00
2014-7-25,81.5,69.4,61.5,70.7,64.7,59.0,97,86,66,29.08,28.83,17,3,17,0.75
2014-7-26,87.1,76.1,67.1,75.2,69.6,64.4,95,81,60,28.92,28.82,9,1,11,0.00
2014-7-27,75.9,71.0,65.5,69.8,62.4,57.6,95,75,60,29.08,28.88,17,3,20,0.00
2014-7-28,75.4,65.9,57.0,61.5,56.6,54.0,90,73,52,29.22,29.08,11,1,12,0.00
2014-7-29,78.6,67.7,56.1,60.8,57.2,53.8,93,71,47,29.17,29.08,10,1,13,0.00
2014-7-30,80.2,69.6,57.6,61.3,58.6,55.0,92,70,48,29.13,29.07,12,1,12,0.00
2014-7-31,81.9,70.8,58.1,61.7,59.0,53.8,95,69,39,29.12,29.05,11,1,11,0.00
2014-8-1,82.8,72.1,59.2,64.2,60.7,57.4,96,70,43,29.13,29.08,8,0,8,0.00
2014-8-2,84.9,72.8,60.6,66.0,63.0,59.7,97,74,47,29.20,29.12,8,1,10,0.00
2014-8-3,84.6,74.0,64.2,68.0,65.4,62.1,93,76,53,29.20,29.08,10,1,10,0.00
2014-8-4,84.4,74.2,66.9,71.8,67.8,65.3,95,81,61,29.11,29.02,9,1,9,0.00
2014-8-5,78.3,69.3,62.4,66.9,64.9,61.9,98,86,64,29.13,29.04,6,1,6,0.00
2014-8-6,72.5,68.9,64.9,67.1,65.2,63.1,96,88,80,29.12,29.05,6,1,6,0.00
2014-8-7,76.1,70.0,63.9,65.3,61.9,57.7,93,76,60,29.08,29.02,11,2,12,0.00
2014-8-8,79.9,72.6,65.3,63.5,61.5,59.0,84,69,50,29.10,29.04,11,2,11,0.00
2014-8-9,82.2,72.5,61.5,63.9,61.5,57.0,86,70,51,29.13,29.06,9,1,11,0.00
2014-8-10,80.1,71.1,60.6,66.0,63.0,58.8,95,77,56,29.12,29.03,6,0,6,0.00
2014-8-11,72.7,68.3,64.6,66.0,63.6,60.3,97,85,71,29.04,28.98,14,1,14,0.00
2014-8-12,78.1,67.3,56.8,60.3,55.1,48.9,96,69,38,29.09,29.02,17,1,17,0.00
2014-8-13,82.2,70.3,56.1,63.1,58.7,53.1,91,69,47,29.14,29.07,11,1,12,0.00
2014-8-14,81.0,70.6,61.0,62.2,59.3,54.7,89,69,48,29.16,29.04,8,1,9,0.00
2014-8-15,74.1,68.1,61.9,66.9,62.5,57.4,93,83,75,29.07,28.95,7,1,7,0.00
2014-8-16,82.6,72.9,65.5,70.7,67.6,64.4,97,84,66,28.97,28.89,6,1,7,0.00
2014-8-17,84.6,74.1,64.8,71.8,68.3,64.0,99,83,62,29.02,28.93,8,1,8,0.00
2014-8-18,86.2,75.8,65.7,73.2,69.8,64.4,97,83,63,28.97,28.74,17,2,17,0.00
2014-8-19,82.8,74.5,66.7,71.6,66.2,63.1,95,77,53,28.85,28.73,14,1,16,0.01
2014-8-20,74.8,70.0,63.5,69.8,66.6,61.3,95,89,82,28.96,28.83,7,1,8,0.03
2014-8-21,83.8,75.6,69.4,75.0,72.0,67.8,98,89,70,28.95,28.85,11,2,12,0.08
2014-8-22,91.0,79.4,71.8,78.1,73.5,68.9,98,83,62,29.00,28.88,10,1,12,0.00
2014-8-23,80.8,75.5,72.1,74.3,72.6,70.7,99,91,78,29.01,28.93,7,2,10,0.39
2014-8-24,91.9,78.9,69.4,77.4,73.2,68.4,98,84,60,28.96,28.89,12,4,17,0.00
2014-8-25,92.5,79.9,73.0,76.1,72.8,66.2,96,80,55,29.08,28.92,8,1,8,0.09
2014-8-26,79.3,70.5,62.6,66.2,62.2,59.4,95,76,57,29.22,29.05,15,1,17,0.54
2014-8-27,77.5,69.4,62.2,62.8,60.5,58.1,90,74,56,29.22,29.11,8,1,9,0.01
2014-8-28,71.4,67.4,64.4,68.4,64.9,61.3,96,91,88,29.15,28.95,12,3,12,0.19
2014-8-29,87.6,73.1,66.0,73.4,68.5,64.2,98,87,59,28.99,28.79,13,2,16,0.33
2014-8-30,80.1,71.3,65.3,68.7,66.7,63.9,98,86,65,28.93,28.80,12,2,12,0.24
2014-8-31,86.4,73.2,62.4,75.0,68.2,61.7,99,86,64,28.94,28.74,20,2,20,0.43
2014-9-1,79.0,70.1,64.0,68.7,64.5,61.3,99,84,57,28.90,28.70,15,3,17,0.75
2014-9-2,80.1,68.7,59.7,62.1,60.0,56.5,96,76,48,29.00,28.90,12,1,12,0.09
2014-9-3,84.0,71.8,58.5,72.3,65.2,57.0,95,81,61,29.00,28.82,17,3,17,0.00
2014-9-4,91.6,80.5,72.1,77.4,73.1,67.8,91,79,61,28.92,28.80,14,4,15,0.00
2014-9-5,78.1,64.3,55.6,73.9,58.7,53.8,94,83,63,29.22,28.91,11,1,17,0.13
2014-9-6,77.0,62.3,49.6,56.5,52.7,48.6,97,74,44,29.28,29.20,7,1,10,0.00
2014-9-7,77.4,65.1,52.0,57.0,54.4,50.5,96,71,45,29.25,29.11,9,1,12,0.00
2014-9-8,72.1,62.7,52.3,64.4,58.0,50.0,95,85,71,29.12,28.82,12,2,18,0.17
2014-9-9,75.9,67.1,62.6,66.6,63.4,60.1,97,88,67,28.95,28.70,16,5,17,0.38
2014-9-10,70.5,62.1,49.6,66.7,59.0,44.8,98,89,81,29.07,28.57,20,4,21,0.40
2014-9-11,59.7,51.4,45.9,46.6,44.0,42.1,92,77,59,29.36,29.07,14,2,16,0.00
2014-9-12,51.4,46.0,41.9,45.1,43.0,40.6,98,89,75,29.46,29.34,11,1,11,0.35
2014-9-13,61.0,47.9,36.5,43.2,39.6,35.8,99,76,44,29.42,29.28,8,1,9,0.00
2014-9-14,69.8,56.4,44.2,51.8,47.1,40.6,88,73,49,29.30,29.13,12,2,14,0.00
2014-9-15,61.9,53.6,45.5,52.2,48.8,44.4,96,85,56,29.27,29.12,13,1,17,0.01
2014-9-16,68.7,53.2,38.8,48.2,44.1,38.3,99,75,42,29.27,29.09,9,1,10,0.00
2014-9-17,74.8,59.5,48.0,54.0,50.6,45.9,94,75,44,29.09,28.97,6,1,8,0.00
2014-9-18,73.8,60.7,47.1,56.7,52.9,46.6,99,78,51,29.15,29.05,9,2,10,0.00
2014-9-19,76.8,64.2,51.3,63.1,56.9,49.1,92,78,60,29.10,28.84,15,4,18,0.00
2014-9-20,82.6,70.2,58.3,68.2,62.6,54.7,96,79,45,28.96,28.74,25,2,25,0.28
2014-9-21,66.6,57.9,50.9,54.9,51.0,48.2,94,79,57,29.24,28.94,14,2,18,0.12
2014-9-22,74.7,58.3,43.3,52.0,48.4,42.8,99,73,41,29.34,29.22,8,1,10,0.00
2014-9-23,72.3,60.3,48.4,54.0,50.1,46.4,93,72,46,29.32,29.21,11,2,12,0.00
2014-9-24,64.2,59.9,57.0,59.2,54.8,50.9,92,83,73,29.28,29.22,6,1,8,0.09
2014-9-25,79.0,66.3,56.1,59.0,56.1,52.9,95,72,43,29.27,29.18,8,1,9,0.00
2014-9-26,81.9,68.0,56.3,61.0,57.5,53.4,90,71,45,29.23,29.16,9,2,10,0.00
2014-9-27,81.9,69.0,58.8,63.1,59.2,56.8,93,73,45,29.24,29.13,10,2,12,0.00
2014-9-28,83.5,67.6,56.1,63.7,58.8,54.9,97,76,43,29.20,29.09,6,0,6,0.00
2014-9-29,82.6,65.7,55.2,64.4,58.1,51.1,97,78,49,29.09,28.99,10,1,15,0.00
2014-9-30,64.8,55.9,51.4,55.0,50.9,47.5,94,84,70,29.07,28.94,10,3,14,0.00
2014-10-1,70.5,59.7,51.6,63.5,55.5,47.5,93,86,74,28.97,28.81,11,2,13,0.01
2014-10-2,67.3,62.4,55.0,64.6,61.1,52.5,98,95,88,28.86,28.67,16,1,18,0.41
2014-10-3,54.9,46.8,37.8,52.5,37.8,26.4,95,72,53,28.96,28.75,21,4,25,0.01
2014-10-4,52.5,42.4,36.0,34.7,31.3,27.9,79,65,46,28.90,28.79,18,3,20,0.00
2014-10-5,55.9,46.7,36.0,43.5,37.1,30.9,85,70,51,28.79,28.63,13,1,18,0.00
2014-10-6,60.8,51.0,39.7,45.7,40.3,34.3,93,69,43,28.70,28.61,13,2,16,0.01
2014-10-7,64.6,54.8,46.6,48.7,43.7,39.7,86,68,46,28.95,28.63,18,2,18,0.00
2014-10-8,69.6,54.9,40.6,47.3,38.8,34.3,88,60,28,29.11,28.95,16,2,19,0.02
2014-10-9,59.2,51.2,44.4,47.1,37.6,30.2,92,62,35,29.22,29.08,10,1,10,0.06
2014-10-10,57.4,46.4,35.8,39.2,36.0,33.1,91,69,43,29.27,29.19,9,1,10,0.00
2014-10-11,62.8,46.7,33.6,39.4,35.7,32.0,95,69,35,29.29,29.10,8,1,8,0.00
2014-10-12,54.1,46.1,36.9,49.8,42.7,34.3,98,88,74,29.10,28.84,11,2,11,0.01
2014-10-13,54.1,52.1,50.4,53.8,51.6,49.8,99,98,97,28.86,28.56,17,2,20,0.99
2014-10-14,54.3,51.3,49.3,51.1,48.3,40.8,98,90,67,28.87,28.54,20,5,22,1.65
2014-10-15,66.2,53.0,43.9,46.9,41.9,37.4,95,68,43,28.95,28.87,16,2,20,0.00
2014-10-16,73.8,54.8,38.8,51.6,44.7,38.1,98,73,36,28.92,28.68,10,2,12,0.00
2014-10-17,55.8,52.3,49.3,46.0,44.7,42.8,85,75,65,29.07,28.68,19,3,19,0.00
2014-10-18,58.5,47.1,39.0,44.8,40.6,37.2,94,79,53,29.23,29.07,13,1,14,0.00
2014-10-19,64.8,50.1,36.7,49.1,43.3,35.1,96,79,55,29.19,28.89,16,2,17,0.00
2014-10-20,68.4,55.3,45.1,47.7,44.6,42.1,90,70,41,29.08,28.89,13,1,16,0.00
2014-10-21,60.6,48.4,36.1,44.1,40.5,35.4,98,76,50,29.25,29.08,8,2,9,0.00
2014-10-22,61.0,48.6,36.5,44.6,40.6,34.9,95,75,53,29.31,29.15,15,4,15,0.00
2014-10-23,61.5,50.8,46.8,56.1,47.7,41.9,98,90,70,29.16,29.04,10,2,10,0.40
2014-10-24,60.3,52.2,44.8,60.3,52.0,44.6,100,99,98,29.07,28.92,10,2,10,0.02
2014-10-25,68.5,56.2,44.6,55.9,43.1,33.4,100,67,29,29.12,28.97,11,1,13,0.01
2014-10-26,64.8,51.2,36.7,43.2,36.2,32.4,94,61,32,29.09,28.67,15,3,16,0.00
2014-10-27,73.6,61.7,50.5,60.4,53.2,43.0,92,74,57,28.81,28.53,18,3,19,0.00
2014-10-28,51.6,47.2,41.7,43.5,37.6,34.0,88,70,58,29.07,28.81,18,4,20,0.00
2014-10-29,49.6,42.2,36.1,35.2,33.3,31.1,87,71,57,29.21,29.06,13,2,13,0.00
2014-10-30,55.4,45.3,34.7,40.6,36.8,32.0,91,74,52,29.23,29.06,20,2,20,0.00
2014-10-31,44.1,34.7,28.0,34.2,21.4,16.5,73,59,43,29.50,29.23,23,5,23,0.00
2014-11-1,45.0,32.0,19.8,25.0,21.7,17.8,94,68,38,29.52,29.31,13,2,13,0.00
2014-11-2,55.2,43.8,32.4,30.6,28.7,25.0,74,57,36,29.31,29.02,18,6,18,0.00
2014-11-3,63.5,52.5,40.5,55.9,42.6,30.0,89,69,57,29.02,28.84,15,4,19,0.00
2014-11-4,59.0,47.1,37.2,55.8,37.5,32.7,91,71,47,29.11,28.84,20,3,20,0.02
2014-11-5,57.2,45.4,34.9,42.8,37.1,32.2,90,74,48,29.12,28.89,18,2,21,0.00
2014-11-6,46.4,39.9,28.8,39.4,31.6,26.2,90,73,56,29.31,28.94,24,5,25,0.00
2014-11-7,50.5,39.4,27.3,42.8,31.3,25.2,94,74,52,29.28,28.76,20,3,21,0.00
2014-11-8,49.3,40.0,35.1,43.3,29.1,23.5,83,65,48,29.08,28.79,24,5,25,0.00
2014-11-9,53.6,43.4,37.0,36.7,33.3,28.8,79,68,51,28.96,28.76,11,2,12,0.00
2014-11-10,61.0,46.4,32.2,46.0,38.6,29.7,92,75,57,28.78,28.42,21,4,21,0.00
2014-11-11,32.7,27.5,22.1,29.7,22.3,15.6,91,81,72,29.30,28.75,20,6,21,0.00
2014-11-12,24.4,21.7,18.9,19.0,14.9,9.9,86,75,65,29.39,29.30,16,3,16,0.00
2014-11-13,25.2,22.5,15.3,19.6,16.5,9.9,88,78,68,29.42,29.37,11,3,14,0.00
2014-11-14,26.1,17.3,11.1,12.4,10.4,7.7,87,75,53,29.44,29.35,12,1,12,0.00
2014-11-15,24.8,18.6,10.2,21.0,15.6,7.9,94,88,71,29.37,29.16,5,1,6,0.00
2014-11-16,23.2,17.0,9.9,21.7,13.2,4.8,94,85,73,29.18,28.97,14,2,14,0.00
2014-11-17,13.6,11.1,7.9,9.7,5.9,2.8,87,79,70,29.11,28.96,22,4,23,0.00
2014-11-18,19.9,13.1,4.8,13.3,7.3,0.5,85,77,58,29.16,28.86,15,3,16,0.00
2014-11-19,25.9,22.0,17.2,20.1,15.5,12.0,84,76,64,29.09,28.79,22,4,22,0.00
2014-11-20,24.1,16.2,7.2,13.8,10.1,4.3,89,77,58,29.35,29.08,11,2,12,0.00
2014-11-21,33.1,20.5,4.8,28.2,14.5,2.1,90,78,65,29.36,29.05,14,3,15,0.00
2014-11-22,54.0,42.3,32.9,51.4,40.2,28.2,99,93,77,29.05,28.68,13,2,13,0.01
2014-11-23,51.4,47.9,35.1,49.8,47.1,33.6,99,97,93,28.68,28.32,18,3,21,0.04
2014-11-24,34.9,23.7,16.3,33.6,21.0,12.0,97,89,80,28.97,28.31,26,6,26,0.05
2014-11-25,26.4,18.4,11.5,19.0,14.2,9.0,90,83,72,29.15,28.97,11,2,12,0.00
2014-11-26,31.8,26.3,21.7,27.5,23.3,19.0,94,88,81,29.34,29.01,12,3,13,0.00
2014-11-27,25.0,10.7,4.3,21.2,5.0,-0.9,87,78,59,29.52,29.32,12,2,13,0.00
2014-11-28,31.5,23.1,12.2,27.3,18.6,6.1,95,83,70,29.33,28.72,18,4,20,0.00
2014-11-29,50.4,36.6,27.7,42.4,34.0,26.4,98,91,72,28.72,28.51,12,2,13,0.01
2014-11-30,33.1,20.1,10.8,32.5,14.2,2.8,98,78,66,29.50,28.62,21,6,21,0.00
2014-12-1,14.4,10.2,7.0,3.6,1.0,-2.6,79,66,53,29.74,29.49,17,3,18,0.00
2014-12-2,30.7,21.0,9.3,23.0,15.1,3.6,88,78,64,29.51,29.03,13,2,14,0.00
2014-12-3,31.3,23.9,18.5,18.5,15.0,13.3,86,69,50,29.39,29.07,13,1,14,0.00
2014-12-4,33.1,27.2,20.3,26.2,18.1,14.0,82,69,48,29.38,29.18,14,3,16,0.00
2014-12-5,37.2,33.0,30.7,34.3,30.8,26.2,97,92,82,29.35,29.15,8,2,9,0.00
2014-12-6,40.6,32.3,26.8,31.5,26.3,22.1,96,79,56,29.62,29.35,14,2,14,0.00
2014-12-7,36.3,30.8,25.2,31.5,27.2,21.9,96,86,77,29.61,29.17,16,4,20,0.09
2014-12-8,37.8,33.0,27.1,36.1,30.4,23.0,98,90,78,29.28,29.05,18,4,21,0.09
2014-12-9,33.1,27.6,21.9,27.7,23.9,19.2,94,86,80,29.46,29.28,13,2,14,0.00
2014-12-10,31.5,29.7,27.3,26.6,25.4,23.2,86,84,81,29.43,29.31,7,1,8,0.00
2014-12-11,29.5,27.5,26.1,28.4,25.1,22.6,97,91,85,29.32,29.27,8,0,8,0.00
2014-12-12,39.2,33.3,29.5,36.3,31.8,28.4,98,94,87,29.33,29.20,8,1,10,0.00
2014-12-13,49.1,42.7,31.3,48.6,42.1,30.6,99,98,95,29.21,29.03,5,1,11,0.00
2014-12-14,54.0,48.2,44.8,52.5,47.8,44.6,100,98,93,29.04,28.89,10,2,10,0.00
2014-12-15,48.6,47.2,44.6,48.4,47.0,44.4,100,99,98,28.90,28.65,16,3,16,0.67
2014-12-16,44.6,25.9,18.0,44.4,22.7,13.5,99,88,82,29.30,28.71,16,5,22,0.77
2014-12-17,24.6,18.5,12.7,17.2,14.4,10.4,94,84,71,29.35,29.28,9,2,10,0.00
2014-12-18,24.1,19.4,12.7,20.3,16.2,11.1,94,87,80,29.33,29.26,6,0,6,0.00
2014-12-19,30.0,27.3,24.1,25.9,23.4,20.3,88,85,81,29.32,29.23,8,2,8,0.00
2014-12-20,32.5,30.7,28.8,32.2,29.3,25.3,99,94,87,29.24,29.14,8,2,9,0.00
2014-12-21,38.7,36.4,32.4,37.4,35.6,32.2,99,97,94,29.14,28.84,14,4,17,0.00
2014-12-22,37.2,36.2,34.9,36.1,35.2,34.3,99,96,92,28.84,28.51,13,4,13,0.15
2014-12-23,37.0,35.2,32.7,36.5,34.6,32.2,99,98,94,28.82,28.49,9,1,10,0.51
2014-12-24,36.3,34.0,30.6,34.0,32.0,28.6,99,92,87,28.80,28.66,15,3,16,0.08
2014-12-25,46.2,36.2,30.0,37.4,32.0,27.9,95,85,69,28.86,28.74,16,4,16,0.00
2014-12-26,42.1,36.0,32.7,35.8,32.8,30.4,95,88,77,29.03,28.84,10,1,10,0.00
2014-12-27,34.7,27.0,17.4,34.0,24.3,14.4,97,89,78,29.22,28.92,14,3,16,0.08
2014-12-28,33.3,22.3,13.8,24.8,18.4,11.7,92,85,70,29.30,29.17,7,0,7,0.00
2014-12-29,23.7,17.4,5.4,20.8,12.4,-1.7,92,81,60,29.66,29.29,15,3,16,0.00
2014-12-30,10.6,3.8,-0.9,-1.1,-3.5,-6.0,81,72,52,29.80,29.65,12,2,12,0.00
2014-12-31,20.8,8.6,-3.3,9.7,1.9,-7.1,84,74,58,29.70,29.15,20,4,27,0.00
2015-1-1,36.0,22.4,12.7,23.4,16.0,8.1,84,76,56,29.17,28.98,20,4,20,0.00
2015-1-2,29.3,25.1,17.4,25.2,20.0,14.9,92,81,63,29.31,29.08,6,0,6,0.00